createdAt,value
2024-01-27T00:03:28.541Z,7.88
2024-01-27T00:08:31.319Z,5.28
2024-01-27T00:13:33.970Z,5.55
2024-01-27T00:18:39.959Z,5.90
2024-01-27T00:23:44.408Z,5.22
2024-01-27T00:28:47.339Z,6.05
2024-01-27T00:33:50.316Z,6.15
2024-01-27T00:38:53.303Z,5.90
2024-01-27T00:43:56.457Z,5.32
2024-01-27T00:48:59.427Z,5.78
2024-01-27T00:54:02.476Z,6.43
2024-01-27T00:59:05.147Z,6.20
2024-01-27T01:04:08.754Z,5.82
2024-01-27T01:09:11.456Z,5.80
2024-01-27T01:14:14.792Z,5.22
2024-01-27T01:19:17.497Z,5.45
2024-01-27T01:24:20.241Z,6.53
2024-01-27T01:29:23.384Z,6.97
2024-01-27T01:34:27.697Z,5.82
2024-01-27T01:39:30.569Z,6.05
2024-01-27T01:44:33.464Z,6.90
2024-01-27T01:49:38.302Z,4.57
2024-01-27T01:54:43.086Z,4.97
2024-01-27T02:00:11.377Z,6.38
2024-01-27T02:05:17.241Z,5.38
2024-01-27T02:10:19.980Z,6.15
2024-01-27T02:15:23.105Z,5.43
2024-01-27T02:20:26.414Z,5.20
2024-01-27T02:25:29.094Z,5.65
2024-01-27T02:30:33.007Z,5.07
2024-01-27T02:35:36.064Z,4.95
2024-01-27T02:45:42.811Z,4.80
2024-01-27T02:50:46.772Z,4.50
2024-01-27T02:55:50.146Z,5.65
2024-01-27T03:00:54.311Z,5.70
2024-01-27T03:05:58.209Z,6.88
2024-01-27T03:11:19.528Z,6.40
2024-01-27T03:16:22.347Z,6.93
2024-01-27T03:21:25.251Z,5.57
2024-01-27T03:26:28.472Z,5.07
2024-01-27T03:31:38.072Z,6.25
2024-01-27T03:36:41.447Z,4.80
2024-01-27T03:41:48.074Z,6.03
2024-01-27T03:46:52.384Z,6.20
2024-01-27T03:51:54.996Z,5.22
2024-01-27T03:56:59.174Z,5.55
2024-01-27T04:02:02.031Z,5.50
2024-01-27T04:07:05.059Z,6.68
2024-01-27T04:12:09.077Z,5.82
2024-01-27T04:17:11.769Z,6.07
2024-01-27T04:22:14.391Z,6.80
2024-01-27T04:27:18.714Z,6.15
2024-01-27T04:32:22.576Z,5.35
2024-01-27T04:37:26.874Z,5.82
2024-01-27T04:42:29.754Z,7.88
2024-01-27T04:47:33.279Z,8.80
2024-01-27T04:52:36.789Z,6.78
2024-01-27T04:57:40.038Z,7.15
2024-01-27T05:02:44.071Z,8.35
2024-01-27T05:12:50.671Z,9.13
2024-01-27T05:17:53.589Z,10.63
2024-01-27T05:22:56.308Z,10.35
2024-01-27T05:27:59.142Z,10.98
2024-01-27T05:33:02.028Z,12.43
2024-01-27T05:38:05.972Z,16.20
2024-01-27T05:43:08.771Z,14.57
2024-01-27T05:48:12.475Z,16.20
2024-01-27T05:53:15.180Z,17.52
2024-01-27T05:58:17.969Z,17.25
2024-01-27T06:03:21.051Z,17.48
2024-01-27T06:08:24.390Z,20.02
2024-01-27T06:13:27.400Z,19.83
2024-01-27T06:18:30.699Z,22.30
2024-01-27T06:23:36.300Z,18.95
2024-01-27T06:28:40.327Z,18.20
2024-01-27T06:38:49.679Z,16.15
2024-01-27T06:43:52.588Z,17.17
2024-01-27T06:48:56.648Z,16.50
2024-01-27T06:53:59.777Z,12.18
2024-01-27T06:59:02.845Z,12.18
2024-01-27T07:04:06.430Z,13.30
2024-01-27T07:09:10.423Z,17.00
2024-01-27T07:14:14.720Z,13.60
2024-01-27T07:19:18.303Z,17.23
2024-01-27T07:24:21.133Z,15.48
2024-01-27T07:29:23.912Z,13.10
2024-01-27T07:34:26.693Z,10.63
2024-01-27T07:39:31.350Z,11.32
2024-01-27T07:44:34.207Z,12.48
2024-01-27T07:49:38.767Z,17.13
2024-01-27T07:59:45.790Z,14.98
2024-01-27T08:04:48.516Z,19.83
2024-01-27T08:09:52.029Z,23.80
2024-01-27T08:14:56.141Z,27.67
2024-01-27T08:19:59.256Z,28.30
2024-01-27T08:25:02.234Z,34.30
2024-01-27T08:30:07.338Z,33.13
2024-01-27T08:35:11.826Z,33.35
2024-01-27T08:40:15.968Z,35.47
2024-01-27T08:45:20.971Z,38.17
2024-01-27T08:50:25.343Z,38.85
2024-01-27T08:55:28.947Z,40.60
2024-01-27T09:00:32.556Z,41.30
2024-01-27T09:05:37.223Z,44.45
2024-01-27T09:10:44.167Z,44.60
2024-01-27T09:15:46.901Z,49.58
2024-01-27T09:20:51.002Z,50.90
2024-01-27T09:25:54.669Z,50.63
2024-01-27T09:30:57.423Z,51.45
2024-01-27T09:36:01.623Z,46.15
2024-01-27T09:41:05.146Z,55.67
2024-01-27T09:46:08.581Z,55.10
2024-01-27T09:51:12.413Z,54.97
2024-01-27T09:56:19.987Z,58.37
2024-01-27T10:01:23.403Z,53.95
2024-01-27T10:06:26.895Z,57.03
2024-01-27T10:11:29.868Z,68.75
2024-01-27T10:16:44.653Z,57.75
2024-01-27T10:21:47.869Z,68.60
2024-01-27T10:26:50.679Z,44.00
2024-01-27T10:31:55.242Z,59.88
2024-01-27T10:36:59.521Z,59.83
2024-01-27T10:42:05.230Z,59.22
2024-01-27T10:47:11.677Z,64.40
2024-01-27T10:52:17.196Z,52.10
2024-01-27T10:57:20.724Z,46.67
2024-01-27T11:02:24.294Z,33.00
2024-01-27T11:07:27.175Z,49.72
2024-01-27T11:12:30.402Z,60.10
2024-01-27T11:17:42.836Z,45.25
2024-01-27T11:22:45.833Z,43.35
2024-01-27T11:27:48.458Z,45.63
2024-01-27T11:32:51.656Z,39.60
2024-01-27T11:37:55.391Z,36.38
2024-01-27T11:43:06.464Z,42.60
2024-01-27T11:48:10.946Z,43.08
2024-01-27T11:53:13.971Z,39.00
2024-01-27T11:58:16.668Z,33.05
2024-01-27T12:03:19.411Z,28.65
2024-01-27T12:08:22.221Z,27.65
2024-01-27T12:13:25.143Z,24.00
2024-01-27T12:18:29.013Z,28.65
2024-01-27T12:23:31.784Z,27.73
2024-01-27T12:28:38.803Z,25.15
2024-01-27T12:33:43.499Z,22.58
2024-01-27T12:38:57.325Z,22.20
2024-01-27T12:44:00.297Z,22.52
2024-01-27T12:49:04.604Z,20.08
2024-01-27T12:54:08.044Z,19.67
2024-01-27T12:59:10.955Z,21.67
2024-01-27T13:04:14.207Z,21.42
2024-01-27T13:09:16.983Z,24.75
2024-01-27T13:14:21.826Z,21.40
2024-01-27T13:19:24.752Z,20.27
2024-01-27T13:24:27.628Z,21.92
2024-01-27T13:29:30.338Z,12.85
2024-01-27T13:34:36.525Z,17.38
2024-01-27T13:39:39.647Z,14.65
2024-01-27T13:44:42.736Z,15.55
2024-01-27T13:49:45.886Z,15.30
2024-01-27T13:54:49.587Z,16.67
2024-01-27T13:59:52.341Z,18.27
2024-01-27T14:04:55.053Z,17.02
2024-01-27T14:09:57.627Z,16.65
2024-01-27T14:15:08.307Z,17.20
2024-01-27T14:20:12.470Z,18.48
2024-01-27T14:25:16.568Z,22.63
2024-01-27T14:30:37.537Z,22.70
2024-01-27T14:35:40.568Z,20.80
2024-01-27T14:40:43.431Z,15.88
2024-01-27T14:45:47.453Z,14.73
2024-01-27T14:50:54.086Z,18.15
2024-01-27T14:55:56.926Z,18.20
2024-01-27T15:00:59.658Z,18.83
2024-01-27T15:06:03.051Z,20.67
2024-01-27T15:11:06.965Z,16.23
2024-01-27T15:16:09.710Z,17.10
2024-01-27T15:21:13.282Z,17.33
2024-01-27T15:26:16.066Z,19.20
2024-01-27T15:31:18.937Z,17.75
2024-01-27T15:36:21.951Z,15.25
2024-01-27T15:41:24.605Z,13.43
2024-01-27T15:46:27.407Z,11.40
2024-01-27T15:51:31.461Z,12.25
2024-01-27T15:56:34.159Z,13.35
2024-01-27T16:01:36.811Z,12.25
2024-01-27T16:06:39.718Z,15.57
2024-01-27T16:11:42.480Z,12.85
2024-01-27T16:16:45.374Z,13.88
2024-01-27T16:21:48.011Z,14.30
2024-01-27T16:26:51.612Z,19.88
2024-01-27T16:31:54.221Z,20.27
2024-01-27T16:36:56.889Z,18.48
2024-01-27T16:41:59.636Z,20.20
2024-01-27T16:47:02.585Z,20.98
2024-01-27T16:52:05.479Z,18.10
2024-01-27T16:57:08.217Z,21.40
2024-01-27T17:02:10.761Z,15.60
2024-01-27T17:07:13.776Z,20.00
2024-01-27T17:12:17.196Z,19.80
2024-01-27T17:17:20.524Z,16.30
2024-01-27T17:22:24.389Z,15.40
2024-01-27T17:27:27.150Z,19.60
2024-01-27T17:32:29.894Z,17.60
2024-01-27T17:37:37.374Z,18.08
2024-01-27T17:42:44.438Z,18.88
2024-01-27T17:47:50.529Z,17.65
2024-01-27T17:52:53.433Z,17.17
2024-01-27T17:57:56.069Z,21.10
2024-01-27T18:02:58.809Z,25.13
2024-01-27T18:08:01.655Z,22.00
2024-01-27T18:13:04.448Z,20.30
2024-01-27T18:18:07.622Z,18.67
2024-01-27T18:23:10.392Z,20.40
2024-01-27T18:28:13.361Z,21.67
2024-01-27T18:33:16.247Z,18.35
2024-01-27T18:38:19.925Z,20.55
2024-01-27T18:43:24.395Z,18.33
2024-01-27T18:48:29.012Z,19.17
2024-01-27T18:53:34.608Z,17.92
2024-01-27T18:58:37.651Z,17.75
2024-01-27T19:03:41.736Z,17.40
2024-01-27T19:08:44.963Z,18.15
2024-01-27T19:13:47.809Z,16.08
2024-01-27T19:18:50.792Z,16.92
2024-01-27T19:23:53.761Z,15.38
2024-01-27T19:28:56.568Z,17.20
2024-01-27T19:33:59.344Z,16.40
2024-01-27T19:39:03.825Z,16.33
2024-01-27T19:44:06.575Z,19.45
2024-01-27T19:49:10.590Z,18.10
2024-01-27T19:54:13.440Z,19.48
2024-01-27T19:59:16.122Z,17.38
2024-01-27T20:04:19.233Z,18.92
2024-01-27T20:09:28.940Z,23.05
2024-01-27T20:14:31.767Z,20.20
2024-01-27T20:19:34.716Z,18.00
2024-01-27T20:24:38.560Z,18.00
2024-01-27T20:29:41.565Z,21.30
2024-01-27T20:34:45.144Z,18.17
2024-01-27T20:39:49.172Z,17.52
2024-01-27T20:44:52.073Z,18.20
2024-01-27T20:49:56.132Z,19.52
2024-01-27T20:55:01.088Z,16.40
2024-01-27T21:00:04.456Z,18.20
2024-01-27T21:05:09.102Z,18.70
2024-01-27T21:10:11.989Z,15.73
2024-01-27T21:15:17.942Z,16.50
2024-01-27T21:20:20.764Z,16.33
2024-01-27T21:25:25.874Z,15.40
2024-01-27T21:30:30.941Z,16.10
2024-01-27T21:35:35.229Z,13.80
2024-01-27T21:40:41.498Z,15.88
2024-01-27T21:46:07.841Z,15.48
2024-01-27T21:51:11.574Z,15.05
2024-01-27T21:56:14.209Z,16.02
2024-01-27T22:01:17.158Z,14.95
2024-01-27T22:06:21.016Z,14.18
2024-01-27T22:11:25.118Z,14.10
2024-01-27T22:16:27.905Z,14.93
2024-01-27T22:21:30.717Z,13.98
2024-01-27T22:26:33.538Z,13.75
2024-01-27T22:31:37.192Z,14.57
2024-01-27T22:36:40.424Z,12.83
2024-01-27T22:41:44.763Z,13.95
2024-01-27T22:46:47.534Z,13.43
2024-01-27T22:51:52.573Z,13.75
2024-01-27T22:56:55.493Z,12.48
2024-01-27T23:01:58.640Z,12.82
2024-01-27T23:07:01.638Z,13.07
2024-01-27T23:12:05.239Z,12.05
2024-01-27T23:17:08.129Z,11.80
2024-01-27T23:22:11.563Z,13.48
2024-01-27T23:27:14.323Z,12.77
2024-01-27T23:32:17.088Z,11.13
2024-01-27T23:37:20.168Z,12.60
2024-01-27T23:42:22.919Z,11.60
2024-01-27T23:47:25.635Z,13.25
2024-01-27T23:52:28.776Z,11.65
2024-01-27T23:57:32.483Z,13.05
